Time;durP1;ratioP1;P1;durP2;ratioP2;P2;SDS_P1;SDS_P2;PMS_P1;PMS_P2;Temp;Humidity;BMP_temperature;BMP_pressure;BME280_temperature;BME280_humidity;BME280_pressure;Samples;Min_cycle;Max_cycle;Signal;HPM_P1;HPM_P2
2023/06/07 00:01:54;;;;;;;;;17.25;16.00;;;;;;;;6372979;22;11419;-76
2023/06/07 00:04:19;;;;;;;;;16.00;15.75;;;;;;;;6375683;22;8772;-76
2023/06/07 00:06:44;;;;;;;;;18.75;14.75;;;;;;;;6375952;22;8749;-76
2023/06/07 00:09:09;;;;;;;;;16.75;15.00;;;;;;;;6375545;22;8746;-75
2023/06/07 00:11:36;;;;;;;;;19.25;15.50;;;;;;;;6373342;22;8784;-75
2023/06/07 00:14:01;;;;;;;;;16.00;13.25;;;;;;;;6376608;22;8727;-76
2023/06/07 00:16:26;;;;;;;;;13.25;13.25;;;;;;;;6376057;22;11412;-77
2023/06/07 00:18:52;;;;;;;;;12.50;12.50;;;;;;;;6373594;22;8787;-77
2023/06/07 00:21:19;;;;;;;;;13.00;13.00;;;;;;;;6375999;22;8722;-77
2023/06/07 00:23:45;;;;;;;;;19.50;17.50;;;;;;;;6378899;22;8821;-77
2023/06/07 00:26:10;;;;;;;;;18.25;17.25;;;;;;;;6378989;22;11512;-77
2023/06/07 00:28:35;;;;;;;;;19.00;15.25;;;;;;;;6373367;22;10150;-76
2023/06/07 00:31:00;;;;;;;;;15.50;15.25;;;;;;;;6376009;22;8754;-77
2023/06/07 00:33:25;;;;;;;;;18.50;14.00;;;;;;;;6375297;22;9616;-77
2023/06/07 00:35:51;;;;;;;;;17.75;15.25;;;;;;;;6373856;22;8829;-77
2023/06/07 00:38:17;;;;;;;;;19.25;17.75;;;;;;;;6375678;22;8737;-77
2023/06/07 00:40:42;;;;;;;;;21.00;18.25;;;;;;;;6375519;22;8707;-77
2023/06/07 00:43:07;;;;;;;;;20.00;18.25;;;;;;;;6375557;22;11420;-77
2023/06/07 00:45:32;;;;;;;;;15.00;14.25;;;;;;;;6375542;22;8830;-77
2023/06/07 00:47:58;;;;;;;;;16.50;11.50;;;;;;;;6375350;22;9526;-77
2023/06/07 00:50:23;;;;;;;;;14.00;14.00;;;;;;;;6375233;22;8726;-76
2023/06/07 00:52:49;;;;;;;;;17.50;15.25;;;;;;;;6375575;22;8762;-77
2023/06/07 00:55:15;;;;;;;;;19.00;16.00;;;;;;;;6375495;22;8792;-77
2023/06/07 00:57:40;;;;;;;;;20.50;19.00;;;;;;;;6375488;22;8707;-77
2023/06/07 01:00:09;;;;;;;;;18.50;17.50;;;;;;;;6376821;22;11416;-77
2023/06/07 01:02:35;;;;;;;;;17.25;15.00;;;;;;;;6376388;22;8737;-76
2023/06/07 01:05:03;;;;;;;;;18.75;17.25;;;;;;;;6375538;22;11390;-78
2023/06/07 01:07:28;;;;;;;;;16.50;15.25;;;;;;;;6373406;22;8739;-77
2023/06/07 01:09:54;;;;;;;;;19.25;15.00;;;;;;;;6375254;22;11382;-77
2023/06/07 01:12:19;;;;;;;;;17.50;14.75;;;;;;;;6376640;22;8766;-77
2023/06/07 01:14:48;;;;;;;;;21.25;18.50;;;;;;;;6375808;22;8835;-77
2023/06/07 01:17:14;;;;;;;;;20.00;16.75;;;;;;;;6375009;22;8706;-77
2023/06/07 01:19:42;;;;;;;;;20.00;18.75;;;;;;;;6375428;22;12187;-77
2023/06/07 01:22:09;;;;;;;;;20.25;19.25;;;;;;;;6375111;22;11552;-77
2023/06/07 01:24:42;;;;;;;;;14.75;14.25;;;;;;;;6375203;22;11438;-77
2023/06/07 01:27:07;;;;;;;;;20.50;20.00;;;;;;;;6375125;22;11406;-77
2023/06/07 01:29:32;;;;;;;;;15.75;15.75;;;;;;;;6374785;22;11449;-77
2023/06/07 01:31:59;;;;;;;;;18.00;17.25;;;;;;;;6372506;22;8774;-77
2023/06/07 01:34:25;;;;;;;;;21.25;19.00;;;;;;;;6375100;22;9473;-77
2023/06/07 01:36:51;;;;;;;;;16.25;16.25;;;;;;;;6375056;22;11368;-77
2023/06/07 01:39:20;;;;;;;;;20.50;18.75;;;;;;;;6375022;22;11407;-77
2023/06/07 01:41:47;;;;;;;;;20.75;19.50;;;;;;;;6373006;22;8742;-77
2023/06/07 01:44:13;;;;;;;;;20.00;17.25;;;;;;;;6375252;22;11468;-77
2023/06/07 01:46:39;;;;;;;;;22.00;18.25;;;;;;;;6374980;22;11399;-77
2023/06/07 01:49:05;;;;;;;;;17.25;15.50;;;;;;;;6375507;22;8715;-77
2023/06/07 01:51:30;;;;;;;;;18.00;15.00;;;;;;;;6375203;22;12124;-77
2023/06/07 01:53:56;;;;;;;;;23.75;18.00;;;;;;;;6377702;22;11485;-77
2023/06/07 01:56:42;;;;;;;;;23.00;17.50;;;;;;;;6377176;22;8742;-77
2023/06/07 01:59:28;;;;;;;;;18.75;16.75;;;;;;;;6374957;22;9597;-77
2023/06/07 02:02:04;;;;;;;;;26.75;19.00;;;;;;;;6376577;22;11375;-76
2023/06/07 02:04:30;;;;;;;;;20.25;18.50;;;;;;;;6375516;22;11418;-76
2023/06/07 02:07:00;;;;;;;;;26.75;23.00;;;;;;;;6374844;22;11471;-77
2023/06/07 02:09:26;;;;;;;;;23.75;21.00;;;;;;;;6374409;22;11375;-77
2023/06/07 02:11:52;;;;;;;;;23.00;20.50;;;;;;;;6374622;22;11407;-77
2023/06/07 02:14:20;;;;;;;;;15.00;13.50;;;;;;;;6374335;22;8698;-76
2023/06/07 02:16:46;;;;;;;;;21.00;18.25;;;;;;;;6374292;22;11534;-76
2023/06/07 02:19:12;;;;;;;;;27.75;22.00;;;;;;;;6372327;22;11471;-77
2023/06/07 02:21:38;;;;;;;;;19.50;19.25;;;;;;;;6374491;22;8788;-77
2023/06/07 02:24:03;;;;;;;;;23.75;21.75;;;;;;;;6372325;22;11399;-76
2023/06/07 02:26:29;;;;;;;;;21.50;19.00;;;;;;;;6376107;22;8735;-77
2023/06/07 02:28:54;;;;;;;;;19.75;19.75;;;;;;;;6376130;22;9219;-77
2023/06/07 02:31:20;;;;;;;;;27.25;24.25;;;;;;;;6376354;22;8730;-76
2023/06/07 02:33:45;;;;;;;;;18.75;18.75;;;;;;;;6376089;22;8746;-77
2023/06/07 02:36:12;;;;;;;;;26.50;22.25;;;;;;;;6376402;22;8831;-76
2023/06/07 02:38:37;;;;;;;;;25.00;20.00;;;;;;;;6376301;22;8711;-77
2023/06/07 02:41:03;;;;;;;;;24.25;22.00;;;;;;;;6377032;22;11381;-77
2023/06/07 02:43:28;;;;;;;;;28.50;22.75;;;;;;;;6376797;22;8855;-77
2023/06/07 02:45:53;;;;;;;;;27.50;25.00;;;;;;;;6376631;22;8738;-76
2023/06/07 02:48:18;;;;;;;;;25.75;24.25;;;;;;;;6376049;22;8785;-76
2023/06/07 02:50:43;;;;;;;;;22.25;20.50;;;;;;;;6376239;22;8762;-77
2023/06/07 02:53:09;;;;;;;;;26.50;24.75;;;;;;;;6376313;22;8906;-76
2023/06/07 02:55:34;;;;;;;;;25.00;21.25;;;;;;;;6375780;22;8746;-76
2023/06/07 02:57:59;;;;;;;;;26.75;19.75;;;;;;;;6373940;22;8778;-77
2023/06/07 03:00:26;;;;;;;;;22.00;22.00;;;;;;;;6374103;22;8762;-76
2023/06/07 03:02:51;;;;;;;;;23.25;22.25;;;;;;;;6373889;22;8898;-77
2023/06/07 03:05:17;;;;;;;;;25.75;23.25;;;;;;;;6376249;22;11482;-78
2023/06/07 03:07:42;;;;;;;;;25.75;22.00;;;;;;;;6376064;22;8734;-77
2023/06/07 03:10:08;;;;;;;;;24.00;23.25;;;;;;;;6376257;22;8769;-76
2023/06/07 03:12:33;;;;;;;;;24.50;23.00;;;;;;;;6375683;22;8766;-76
2023/06/07 03:14:58;;;;;;;;;26.00;23.25;;;;;;;;6376320;22;8754;-77
2023/06/07 03:17:24;;;;;;;;;26.75;26.75;;;;;;;;6376003;22;8738;-77
2023/06/07 03:19:49;;;;;;;;;26.50;23.00;;;;;;;;6376222;22;9528;-77
2023/06/07 03:22:15;;;;;;;;;31.75;24.00;;;;;;;;6376128;22;8833;-78
2023/06/07 03:24:40;;;;;;;;;23.25;21.75;;;;;;;;6374337;22;8943;-77
2023/06/07 03:27:08;;;;;;;;;31.00;25.75;;;;;;;;6375920;22;8722;-77
2023/06/07 03:29:33;;;;;;;;;26.50;23.00;;;;;;;;6377637;22;8803;-77
2023/06/07 03:31:59;;;;;;;;;25.75;24.50;;;;;;;;6375876;22;11460;-77
2023/06/07 03:34:26;;;;;;;;;26.00;24.00;;;;;;;;6376220;22;8843;-76
2023/06/07 03:36:51;;;;;;;;;28.75;25.25;;;;;;;;6376021;22;8715;-77
2023/06/07 03:39:16;;;;;;;;;33.25;26.25;;;;;;;;6374907;22;11479;-77
2023/06/07 03:41:41;;;;;;;;;24.75;23.50;;;;;;;;6376881;22;8796;-77
2023/06/07 03:44:06;;;;;;;;;31.25;23.75;;;;;;;;6375922;22;8774;-76
2023/06/07 03:46:31;;;;;;;;;27.25;24.75;;;;;;;;6373525;22;8762;-77
2023/06/07 03:48:57;;;;;;;;;28.00;28.00;;;;;;;;6376002;22;8836;-77
2023/06/07 03:51:22;;;;;;;;;28.25;24.50;;;;;;;;6375508;22;8778;-76
2023/06/07 03:53:47;;;;;;;;;23.00;22.50;;;;;;;;6375895;22;9501;-77
2023/06/07 03:56:12;;;;;;;;;32.00;29.50;;;;;;;;6375622;22;8738;-77
2023/06/07 03:58:37;;;;;;;;;32.00;28.00;;;;;;;;6375868;22;8780;-77
2023/06/07 04:01:03;;;;;;;;;30.75;26.50;;;;;;;;6373610;22;8859;-80
2023/06/07 04:03:30;;;;;;;;;28.75;27.75;;;;;;;;6375830;22;8939;-80
2023/06/07 04:05:55;;;;;;;;;31.00;27.25;;;;;;;;6376556;22;8715;-77
2023/06/07 04:08:20;;;;;;;;;29.00;27.00;;;;;;;;6376280;22;12311;-78
2023/06/07 04:10:45;;;;;;;;;37.75;32.75;;;;;;;;6375527;22;8738;-77
2023/06/07 04:13:11;;;;;;;;;22.75;21.25;;;;;;;;6375848;22;8935;-78
2023/06/07 04:15:36;;;;;;;;;34.00;31.00;;;;;;;;6376105;22;8734;-77
2023/06/07 04:18:01;;;;;;;;;22.75;20.50;;;;;;;;6376394;22;9588;-77
2023/06/07 04:20:30;;;;;;;;;30.75;27.50;;;;;;;;6375028;22;8803;-76
2023/06/07 04:22:55;;;;;;;;;26.50;25.00;;;;;;;;6375694;22;8739;-77
2023/06/07 04:25:21;;;;;;;;;30.25;30.25;;;;;;;;6372434;22;12718;-77
2023/06/07 04:27:48;;;;;;;;;32.50;32.00;;;;;;;;6376782;22;8707;-76
2023/06/07 04:30:15;;;;;;;;;36.75;26.75;;;;;;;;6375645;22;12302;-76
2023/06/07 04:32:41;;;;;;;;;32.25;30.00;;;;;;;;6373043;22;11503;-76
2023/06/07 04:35:06;;;;;;;;;33.50;28.75;;;;;;;;6375882;22;11657;-80
2023/06/07 04:37:31;;;;;;;;;30.50;25.00;;;;;;;;6376235;22;9491;-84
2023/06/07 04:39:57;;;;;;;;;38.00;30.75;;;;;;;;6376367;22;8734;-79
2023/06/07 04:42:23;;;;;;;;;34.25;27.75;;;;;;;;6375928;22;8789;-81
2023/06/07 04:44:50;;;;;;;;;34.00;28.50;;;;;;;;6374383;22;8727;-81
2023/06/07 04:47:17;;;;;;;;;39.25;32.75;;;;;;;;6375013;22;11629;-74
2023/06/07 04:49:42;;;;;;;;;31.25;28.50;;;;;;;;6375095;22;11472;-77
2023/06/07 04:52:07;;;;;;;;;30.75;28.25;;;;;;;;6375622;22;11502;-78
2023/06/07 04:54:36;;;;;;;;;30.25;29.25;;;;;;;;6375975;22;9645;-79
2023/06/07 04:57:01;;;;;;;;;40.75;31.25;;;;;;;;6376783;22;8779;-81
2023/06/07 04:59:34;;;;;;;;;36.25;31.25;;;;;;;;6376451;22;11467;-88
2023/06/07 05:01:59;;;;;;;;;39.00;34.50;;;;;;;;6380753;22;8683;-88
2023/06/07 05:04:25;;;;;;;;;26.50;24.50;;;;;;;;6380695;22;12335;-89
2023/06/07 05:06:55;;;;;;;;;37.75;34.00;;;;;;;;6381605;22;8710;-85
2023/06/07 05:09:20;;;;;;;;;34.50;32.00;;;;;;;;6376759;22;8715;-87
2023/06/07 05:11:45;;;;;;;;;37.00;33.00;;;;;;;;6379962;22;11607;-86
2023/06/07 05:14:10;;;;;;;;;36.75;30.75;;;;;;;;6375706;22;8819;-80
2023/06/07 05:16:35;;;;;;;;;36.50;33.50;;;;;;;;6375899;22;9474;-81
2023/06/07 05:19:03;;;;;;;;;36.50;34.00;;;;;;;;6373023;22;8784;-80
2023/06/07 05:21:28;;;;;;;;;36.75;33.00;;;;;;;;6375352;22;8727;-78
2023/06/07 05:23:53;;;;;;;;;39.00;33.25;;;;;;;;6374892;22;11501;-82
2023/06/07 05:26:19;;;;;;;;;35.25;31.00;;;;;;;;6375331;22;8746;-86
2023/06/07 05:28:44;;;;;;;;;42.00;33.25;;;;;;;;6376749;22;8853;-83
2023/06/07 05:31:11;;;;;;;;;36.25;32.25;;;;;;;;6374482;22;8762;-79
2023/06/07 05:33:37;;;;;;;;;34.50;31.50;;;;;;;;6375153;22;8738;-80
2023/06/07 05:36:02;;;;;;;;;38.25;34.50;;;;;;;;6372923;22;11571;-80
2023/06/07 05:38:27;;;;;;;;;41.25;33.00;;;;;;;;6373678;22;8754;-80
2023/06/07 05:40:53;;;;;;;;;34.00;32.00;;;;;;;;6373750;22;8873;-80
2023/06/07 05:43:19;;;;;;;;;29.75;29.00;;;;;;;;6374073;22;8719;-79
2023/06/07 05:45:44;;;;;;;;;37.00;31.25;;;;;;;;6373255;22;11472;-79
2023/06/07 05:48:09;;;;;;;;;40.25;34.50;;;;;;;;6374297;22;8784;-80
2023/06/07 05:50:35;;;;;;;;;36.25;32.75;;;;;;;;6374426;22;8790;-79
2023/06/07 05:53:00;;;;;;;;;33.50;30.25;;;;;;;;6375744;22;8851;-80
2023/06/07 05:55:29;;;;;;;;;38.50;34.75;;;;;;;;6375745;22;8742;-77
2023/06/07 05:57:55;;;;;;;;;34.75;31.00;;;;;;;;6374579;22;9513;-79
2023/06/07 06:00:20;;;;;;;;;42.25;34.25;;;;;;;;6375527;22;11449;-80
2023/06/07 06:02:46;;;;;;;;;42.75;36.75;;;;;;;;6377103;22;11513;-78
2023/06/07 06:05:11;;;;;;;;;35.75;33.50;;;;;;;;6376598;22;8734;-77
2023/06/07 06:07:37;;;;;;;;;36.75;34.00;;;;;;;;6374222;22;8760;-83
2023/06/07 06:10:04;;;;;;;;;36.50;33.50;;;;;;;;6377697;22;8751;-76
2023/06/07 06:12:29;;;;;;;;;35.00;30.25;;;;;;;;6376519;22;8839;-83
2023/06/07 06:14:55;;;;;;;;;37.75;33.50;;;;;;;;6376346;22;12299;-78
2023/06/07 06:17:20;;;;;;;;;36.50;34.00;;;;;;;;6377768;22;8768;-78
2023/06/07 06:19:45;;;;;;;;;42.25;36.00;;;;;;;;6376662;22;9439;-82
2023/06/07 06:22:10;;;;;;;;;38.75;33.25;;;;;;;;6377334;22;8833;-81
2023/06/07 06:24:36;;;;;;;;;42.50;33.00;;;;;;;;6376363;22;8739;-76
2023/06/07 06:27:01;;;;;;;;;34.25;32.75;;;;;;;;6377930;22;8758;-81
2023/06/07 06:29:26;;;;;;;;;36.00;30.50;;;;;;;;6376992;22;9722;-77
2023/06/07 06:31:51;;;;;;;;;38.00;33.25;;;;;;;;6373131;22;8770;-79
2023/06/07 06:34:18;;;;;;;;;34.50;33.25;;;;;;;;6376411;22;8826;-87
2023/06/07 06:36:43;;;;;;;;;38.75;33.50;;;;;;;;6367841;22;8715;-79
2023/06/07 06:39:09;;;;;;;;;33.25;31.50;;;;;;;;6372693;22;11527;-79
2023/06/07 06:41:35;;;;;;;;;37.75;32.75;;;;;;;;6373240;22;8731;-68
2023/06/07 06:44:00;;;;;;;;;39.25;34.00;;;;;;;;6373031;22;9551;-68
2023/06/07 06:46:25;;;;;;;;;39.00;34.25;;;;;;;;6373162;22;8852;-69
2023/06/07 06:48:50;;;;;;;;;33.00;31.25;;;;;;;;6376114;22;8800;-67
2023/06/07 06:51:15;;;;;;;;;28.75;27.25;;;;;;;;6373060;22;8762;-68
2023/06/07 06:53:41;;;;;;;;;27.75;27.75;;;;;;;;6347469;22;8868;-67
2023/06/07 06:56:06;;;;;;;;;35.75;32.75;;;;;;;;6375584;22;8780;-67
2023/06/07 06:58:34;;;;;;;;;29.00;27.25;;;;;;;;6373933;22;8784;-73
2023/06/07 07:00:59;;;;;;;;;37.75;34.25;;;;;;;;6375140;22;8742;-74
2023/06/07 07:03:24;;;;;;;;;32.50;28.00;;;;;;;;6375494;22;11540;-73
2023/06/07 07:05:50;;;;;;;;;24.75;24.25;;;;;;;;6375198;22;8750;-74
2023/06/07 07:08:15;;;;;;;;;37.50;32.50;;;;;;;;6374979;22;8750;-73
2023/06/07 07:10:40;;;;;;;;;32.75;30.25;;;;;;;;6375417;22;8843;-73
2023/06/07 07:13:06;;;;;;;;;30.25;27.75;;;;;;;;6375315;22;8789;-74
2023/06/07 07:15:31;;;;;;;;;33.75;29.00;;;;;;;;6374038;22;8820;-74
2023/06/07 07:17:56;;;;;;;;;34.25;31.00;;;;;;;;6375274;22;8750;-74
2023/06/07 07:20:22;;;;;;;;;30.25;25.50;;;;;;;;6374753;22;9507;-74
2023/06/07 07:22:47;;;;;;;;;32.50;29.75;;;;;;;;6373932;22;8766;-73
2023/06/07 07:25:13;;;;;;;;;29.75;29.00;;;;;;;;6374865;22;8758;-73
2023/06/07 07:27:38;;;;;;;;;32.50;30.00;;;;;;;;6374279;22;8893;-73
2023/06/07 07:30:04;;;;;;;;;31.50;29.75;;;;;;;;6373822;22;8800;-74
2023/06/07 07:32:29;;;;;;;;;31.75;29.00;;;;;;;;6375447;22;8843;-73
2023/06/07 07:34:55;;;;;;;;;32.75;29.00;;;;;;;;6374657;22;11491;-74
2023/06/07 07:37:20;;;;;;;;;28.25;24.25;;;;;;;;6373908;22;8751;-74
2023/06/07 07:39:45;;;;;;;;;35.75;29.00;;;;;;;;6375080;22;8766;-74
2023/06/07 07:42:10;;;;;;;;;34.25;30.00;;;;;;;;6375706;22;8869;-74
2023/06/07 07:44:36;;;;;;;;;29.00;26.00;;;;;;;;6375917;22;8746;-74
2023/06/07 07:47:02;;;;;;;;;35.25;30.25;;;;;;;;6375825;22;8769;-73
2023/06/07 07:49:27;;;;;;;;;24.50;24.50;;;;;;;;6374809;22;11459;-74
2023/06/07 13:05:40;;;;;;;;;12.50;11.75;;;;;;;;5070757;27;49804;-71
2023/06/07 13:08:06;;;;;;;;;14.00;13.75;;;;;;;;5046660;27;50257;-69
2023/06/07 13:10:31;;;;;;;;;20.50;18.50;;;;;;;;5061977;27;49972;-69
2023/06/07 13:12:56;;;;;;;;;16.75;14.50;;;;;;;;5073605;27;50256;-69
2023/06/07 13:15:22;;;;;;;;;20.75;15.00;;;;;;;;5064604;27;50263;-69
2023/06/07 13:17:47;;;;;;;;;16.75;15.00;;;;;;;;5075439;27;49854;-71
2023/06/07 13:20:12;;;;;;;;;16.25;15.50;;;;;;;;5069879;27;50031;-69
2023/06/07 13:22:37;;;;;;;;;16.50;16.50;;;;;;;;5066216;27;50093;-68
2023/06/07 13:25:03;;;;;;;;;18.75;17.50;;;;;;;;5076474;27;50107;-68
2023/06/07 13:27:28;;;;;;;;;13.75;13.75;;;;;;;;5083651;27;49582;-68
2023/06/07 13:29:53;;;;;;;;;15.25;14.00;;;;;;;;5075191;27;50011;-68
2023/06/07 13:32:19;;;;;;;;;14.00;14.00;;;;;;;;5084721;27;50247;-68
2023/06/07 13:34:44;;;;;;;;;13.00;12.25;;;;;;;;5089187;27;49815;-68
2023/06/07 13:37:09;;;;;;;;;15.50;12.75;;;;;;;;5081263;27;49842;-69
2023/06/07 13:39:34;;;;;;;;;17.00;16.00;;;;;;;;5084593;27;49995;-67
2023/06/07 13:42:00;;;;;;;;;15.25;14.75;;;;;;;;5074268;27;50401;-68
2023/06/07 13:44:25;;;;;;;;;17.00;17.00;;;;;;;;5086335;27;49916;-68
2023/06/07 13:46:50;;;;;;;;;15.75;15.75;;;;;;;;5083792;27;50147;-68
2023/06/07 13:49:15;;;;;;;;;16.00;14.25;;;;;;;;5080390;27;49704;-67
2023/06/07 13:51:41;;;;;;;;;13.75;13.25;;;;;;;;5081651;27;49760;-68
2023/06/07 13:54:06;;;;;;;;;14.75;14.75;;;;;;;;5080745;27;49889;-69
2023/06/07 13:56:31;;;;;;;;;11.25;8.25;;;;;;;;5078558;27;50275;-68
2023/06/07 13:58:58;;;;;;;;;17.25;16.00;;;;;;;;5083165;27;50063;-67
2023/06/07 14:01:23;;;;;;;;;13.50;13.00;;;;;;;;5078203;27;51538;-69
2023/06/07 14:03:49;;;;;;;;;16.50;15.50;;;;;;;;5078523;27;49759;-70
2023/06/07 14:06:15;;;;;;;;;17.75;17.25;;;;;;;;5062364;27;49764;-68
2023/06/07 14:08:40;;;;;;;;;9.75;9.75;;;;;;;;5062306;27;49750;-67
2023/06/07 14:11:05;;;;;;;;;18.00;16.00;;;;;;;;5065839;27;50673;-67
2023/06/07 14:13:30;;;;;;;;;15.00;15.00;;;;;;;;5052127;28;49747;-68
2023/06/07 14:15:55;;;;;;;;;17.25;17.25;;;;;;;;5060471;27;50143;-67
2023/06/07 14:18:21;;;;;;;;;16.75;16.75;;;;;;;;5066302;27;49682;-68
2023/06/07 14:20:46;;;;;;;;;11.00;11.00;;;;;;;;5068636;27;52611;-67
2023/06/07 14:23:11;;;;;;;;;20.00;16.50;;;;;;;;5067418;27;49916;-68
2023/06/07 14:25:36;;;;;;;;;14.00;12.25;;;;;;;;5069785;27;50092;-68
2023/06/07 14:28:02;;;;;;;;;13.50;13.50;;;;;;;;5066394;27;49944;-69
2023/06/07 14:30:27;;;;;;;;;15.00;14.00;;;;;;;;5067770;27;51825;-68
2023/06/07 14:32:52;;;;;;;;;15.00;15.00;;;;;;;;5069711;27;49878;-69
2023/06/07 14:35:18;;;;;;;;;14.50;14.50;;;;;;;;5062954;27;50219;-68
2023/06/07 14:37:43;;;;;;;;;18.00;18.00;;;;;;;;5063499;27;49737;-72
2023/06/07 14:40:09;;;;;;;;;13.25;12.75;;;;;;;;5057194;27;51356;-71
2023/06/07 14:42:34;;;;;;;;;13.00;13.00;;;;;;;;5066711;27;50296;-72
2023/06/07 14:44:59;;;;;;;;;14.75;14.75;;;;;;;;5066395;27;49691;-72
2023/06/07 14:47:25;;;;;;;;;15.00;14.25;;;;;;;;5067134;27;50450;-72
2023/06/07 14:49:51;;;;;;;;;17.75;16.00;;;;;;;;5062684;27;51088;-72
2023/06/07 14:52:16;;;;;;;;;14.25;13.75;;;;;;;;5063567;27;49663;-72
2023/06/07 14:54:41;;;;;;;;;15.75;15.00;;;;;;;;5069307;27;49835;-72
2023/06/07 14:57:07;;;;;;;;;14.75;13.50;;;;;;;;5069950;27;49963;-73
2023/06/07 14:59:32;;;;;;;;;16.50;14.75;;;;;;;;5065219;27;50779;-72
2023/06/07 15:01:57;;;;;;;;;17.75;16.50;;;;;;;;5059691;28;49731;-71
2023/06/07 15:04:22;;;;;;;;;16.00;16.00;;;;;;;;5067160;27;50697;-71
2023/06/07 15:06:48;;;;;;;;;10.00;10.00;;;;;;;;5066330;27;50009;-72
2023/06/07 15:09:13;;;;;;;;;16.00;14.75;;;;;;;;5067755;28;50745;-72
2023/06/07 15:11:38;;;;;;;;;15.25;13.75;;;;;;;;5066155;27;50116;-69
2023/06/07 15:14:03;;;;;;;;;13.00;12.75;;;;;;;;5060654;27;50976;-71
2023/06/07 15:16:28;;;;;;;;;13.25;13.25;;;;;;;;5062592;27;50517;-72
2023/06/07 15:18:54;;;;;;;;;17.50;15.00;;;;;;;;5060845;28;51671;-71
2023/06/07 15:21:20;;;;;;;;;8.25;8.00;;;;;;;;5057176;28;49809;-72
2023/06/07 15:23:45;;;;;;;;;15.50;15.00;;;;;;;;5066544;27;49636;-72
2023/06/07 15:26:10;;;;;;;;;17.75;15.25;;;;;;;;5066609;27;50076;-71
2023/06/07 15:28:35;;;;;;;;;14.00;12.50;;;;;;;;5066726;27;50891;-72
2023/06/07 15:31:00;;;;;;;;;13.75;11.00;;;;;;;;5067015;27;49904;-72
2023/06/07 15:33:26;;;;;;;;;17.50;16.25;;;;;;;;5063529;27;49882;-72
2023/06/07 15:35:51;;;;;;;;;12.25;12.25;;;;;;;;5060029;27;49689;-71
2023/06/07 15:38:16;;;;;;;;;12.00;12.00;;;;;;;;5068927;27;49853;-72
2023/06/07 15:40:42;;;;;;;;;11.25;11.25;;;;;;;;5069423;28;49849;-72
2023/06/07 15:43:07;;;;;;;;;12.00;11.00;;;;;;;;5068688;27;49703;-71
2023/06/07 15:45:32;;;;;;;;;10.50;10.50;;;;;;;;5063512;27;50172;-72
2023/06/07 15:48:01;;;;;;;;;15.75;13.75;;;;;;;;5065819;27;50125;-72
2023/06/07 15:50:30;;;;;;;;;11.75;11.75;;;;;;;;5064242;27;49802;-71
2023/06/07 15:52:56;;;;;;;;;16.25;15.75;;;;;;;;5059249;28;49850;-71
2023/06/07 15:55:23;;;;;;;;;11.25;10.75;;;;;;;;5052297;27;50247;-72
2023/06/07 15:57:48;;;;;;;;;13.50;13.50;;;;;;;;5060611;28;50699;-72
2023/06/07 16:00:14;;;;;;;;;12.00;12.00;;;;;;;;5069049;27;49949;-72
2023/06/07 16:02:39;;;;;;;;;18.00;14.50;;;;;;;;5064258;28;49821;-72
2023/06/07 16:05:05;;;;;;;;;12.75;12.75;;;;;;;;5061427;27;49812;-72
2023/06/07 16:07:30;;;;;;;;;12.25;12.25;;;;;;;;5062165;27;50489;-72
2023/06/07 16:09:55;;;;;;;;;16.00;14.50;;;;;;;;5058275;27;49916;-72
2023/06/07 16:12:20;;;;;;;;;13.50;13.50;;;;;;;;5062781;28;49921;-72
2023/06/07 16:14:45;;;;;;;;;14.75;14.75;;;;;;;;5065622;28;50161;-72
2023/06/07 16:17:10;;;;;;;;;12.75;12.75;;;;;;;;5063612;28;50102;-72
2023/06/07 16:19:36;;;;;;;;;10.75;10.75;;;;;;;;5057106;27;50169;-72
2023/06/07 16:22:01;;;;;;;;;14.25;13.00;;;;;;;;5067304;28;49800;-72
2023/06/07 16:24:27;;;;;;;;;14.50;14.50;;;;;;;;5063481;27;49925;-72
2023/06/07 16:26:52;;;;;;;;;13.75;13.00;;;;;;;;5062305;27;50815;-72
2023/06/07 16:29:17;;;;;;;;;14.25;14.25;;;;;;;;5060626;27;49758;-72
2023/06/07 16:31:42;;;;;;;;;12.00;12.00;;;;;;;;5065237;27;49807;-72
2023/06/07 16:34:07;;;;;;;;;15.00;13.25;;;;;;;;5068059;27;50065;-72
2023/06/07 16:36:36;;;;;;;;;12.00;12.00;;;;;;;;5060084;28;51798;-72
2023/06/07 16:39:01;;;;;;;;;13.75;13.75;;;;;;;;5068498;27;49636;-72
2023/06/07 16:41:26;;;;;;;;;12.00;11.25;;;;;;;;5068390;27;50184;-72
2023/06/07 16:43:52;;;;;;;;;12.25;9.25;;;;;;;;5069044;27;49619;-72
2023/06/07 16:46:17;;;;;;;;;12.00;11.75;;;;;;;;5062681;28;51537;-71
2023/06/07 16:48:42;;;;;;;;;14.50;12.50;;;;;;;;5063138;27;50132;-72
2023/06/07 16:51:07;;;;;;;;;13.25;11.75;;;;;;;;5058866;28;49770;-72
2023/06/07 16:53:32;;;;;;;;;14.75;13.00;;;;;;;;5059669;27;49991;-72
2023/06/07 16:55:57;;;;;;;;;15.50;13.25;;;;;;;;5068110;27;49767;-72
2023/06/07 16:58:23;;;;;;;;;11.75;11.75;;;;;;;;5066778;28;50103;-72
2023/06/07 17:00:48;;;;;;;;;14.25;14.00;;;;;;;;5068194;27;49684;-72
2023/06/07 17:03:13;;;;;;;;;12.50;12.50;;;;;;;;5064442;28;50049;-72
2023/06/07 17:05:38;;;;;;;;;12.00;11.00;;;;;;;;5067624;27;50862;-72
2023/06/07 17:08:05;;;;;;;;;13.00;13.00;;;;;;;;5067707;27;50087;-72
2023/06/07 17:10:40;;;;;;;;;11.50;11.25;;;;;;;;5065322;27;49960;-72
2023/06/07 17:13:05;;;;;;;;;10.75;10.00;;;;;;;;5050139;27;50132;-72
2023/06/07 17:15:31;;;;;;;;;10.50;10.50;;;;;;;;5059740;27;49811;-72
2023/06/07 17:17:57;;;;;;;;;14.00;13.00;;;;;;;;5056022;27;50308;-75
2023/06/07 17:20:22;;;;;;;;;15.50;13.75;;;;;;;;5062245;27;50054;-71
2023/06/07 17:22:48;;;;;;;;;14.75;13.75;;;;;;;;5062175;28;49716;-72
2023/06/07 17:25:13;;;;;;;;;11.25;10.25;;;;;;;;5057516;27;49773;-72
2023/06/07 17:27:38;;;;;;;;;14.00;12.00;;;;;;;;5058218;28;49736;-71
2023/06/07 17:30:04;;;;;;;;;15.50;14.75;;;;;;;;5064960;27;49921;-72
2023/06/07 17:32:29;;;;;;;;;8.50;7.50;;;;;;;;5060965;27;49755;-72
2023/06/07 17:34:54;;;;;;;;;13.25;11.75;;;;;;;;5058365;27;50419;-72
2023/06/07 17:37:21;;;;;;;;;14.50;14.50;;;;;;;;5058261;27;49740;-72
2023/06/07 17:39:46;;;;;;;;;15.50;14.00;;;;;;;;5061859;27;50042;-72
2023/06/07 17:42:15;;;;;;;;;16.00;14.75;;;;;;;;5059350;28;49986;-72
2023/06/07 17:44:40;;;;;;;;;17.50;14.75;;;;;;;;5057214;28;50643;-73
2023/06/07 17:47:06;;;;;;;;;12.75;12.75;;;;;;;;5066248;27;50180;-73
2023/06/07 17:49:31;;;;;;;;;16.50;15.00;;;;;;;;5065297;28;49745;-74
2023/06/07 17:51:56;;;;;;;;;16.75;13.50;;;;;;;;5064925;27;50081;-75
2023/06/07 17:54:22;;;;;;;;;11.25;11.25;;;;;;;;5066469;28;50874;-73
2023/06/07 17:56:47;;;;;;;;;13.00;13.00;;;;;;;;5062390;28;49734;-73
2023/06/07 17:59:13;;;;;;;;;14.50;13.50;;;;;;;;5059111;28;50229;-77
2023/06/07 18:01:39;;;;;;;;;14.50;13.00;;;;;;;;5067965;28;49849;-75
2023/06/07 18:04:06;;;;;;;;;16.50;15.00;;;;;;;;5070342;27;50070;-74
2023/06/07 18:06:31;;;;;;;;;13.25;12.75;;;;;;;;5068539;27;49828;-74
2023/06/07 18:08:57;;;;;;;;;16.50;15.00;;;;;;;;5067957;28;49897;-75
2023/06/07 18:11:22;;;;;;;;;15.25;15.25;;;;;;;;5070878;27;50420;-75
2023/06/07 18:13:47;;;;;;;;;5.25;5.25;;;;;;;;5055156;27;50362;-75
2023/06/07 18:16:13;;;;;;;;;14.75;14.75;;;;;;;;5069835;27;50058;-75
2023/06/07 18:18:38;;;;;;;;;17.00;15.50;;;;;;;;5054612;27;49925;-75
2023/06/07 18:21:05;;;;;;;;;14.00;13.00;;;;;;;;5071076;27;50450;-73
2023/06/07 18:23:30;;;;;;;;;13.50;11.75;;;;;;;;5070494;27;49718;-73
2023/06/07 18:25:59;;;;;;;;;15.50;15.50;;;;;;;;5070470;27;49878;-73
2023/06/07 18:28:25;;;;;;;;;13.00;12.00;;;;;;;;5053196;28;49707;-71
2023/06/07 18:30:50;;;;;;;;;14.00;12.50;;;;;;;;5070787;27;50017;-85
2023/06/07 18:33:15;;;;;;;;;18.00;15.50;;;;;;;;5066865;27;50025;-72
2023/06/07 18:35:40;;;;;;;;;17.00;14.00;;;;;;;;5070214;27;49683;-72
2023/06/07 18:38:05;;;;;;;;;14.00;12.75;;;;;;;;5070289;27;49667;-71
2023/06/07 18:40:32;;;;;;;;;17.00;16.00;;;;;;;;5070693;27;49980;-71
2023/06/07 18:42:57;;;;;;;;;13.50;13.50;;;;;;;;5069846;27;50898;-75
2023/06/07 18:45:22;;;;;;;;;12.00;12.00;;;;;;;;5070017;27;49688;-72
2023/06/07 18:47:47;;;;;;;;;14.00;14.00;;;;;;;;5070443;27;49688;-72
2023/06/07 18:50:13;;;;;;;;;16.00;15.00;;;;;;;;5070731;27;50058;-72
2023/06/07 18:52:38;;;;;;;;;15.75;15.75;;;;;;;;5069772;28;50095;-73
2023/06/07 18:55:03;;;;;;;;;12.00;12.00;;;;;;;;5070201;28;49684;-75
2023/06/07 18:57:28;;;;;;;;;14.25;13.00;;;;;;;;5070403;27;50254;-78
2023/06/07 18:59:54;;;;;;;;;12.50;12.50;;;;;;;;5070065;27;50029;-83
2023/06/07 19:02:19;;;;;;;;;13.75;13.50;;;;;;;;5067272;27;51399;-76
2023/06/07 19:04:44;;;;;;;;;16.25;14.00;;;;;;;;5057932;27;49713;-73
2023/06/07 19:07:09;;;;;;;;;14.25;14.25;;;;;;;;5069781;27;49915;-73
2023/06/07 19:09:36;;;;;;;;;14.50;14.50;;;;;;;;5070058;27;50037;-72
2023/06/07 19:12:01;;;;;;;;;14.25;14.25;;;;;;;;5069763;27;50771;-74
2023/06/07 19:14:28;;;;;;;;;25.25;19.25;;;;;;;;5069731;27;49711;-72
2023/06/07 19:16:55;;;;;;;;;14.75;14.25;;;;;;;;5069458;27;49872;-72
2023/06/07 19:19:21;;;;;;;;;16.00;15.25;;;;;;;;5070119;27;49938;-72
2023/06/07 19:21:46;;;;;;;;;13.00;12.75;;;;;;;;5069312;27;50057;-72
2023/06/07 19:24:11;;;;;;;;;15.50;15.25;;;;;;;;5069839;27;49756;-70
2023/06/07 19:26:36;;;;;;;;;7.50;6.25;;;;;;;;5069767;27;49714;-74
2023/06/07 19:29:02;;;;;;;;;19.50;17.50;;;;;;;;5069869;27;50020;-80